sensor_id;sensor_type;location;lat;lon;timestamp;pressure;altitude;pressure_sealevel;temperature
70533;BMP180;58088;51.186;17.130;2023-02-01T00:00:49;99686.80;;;5.40
70533;BMP180;58088;51.186;17.130;2023-02-01T00:03:15;99678.00;;;5.36
70533;BMP180;58088;51.186;17.130;2023-02-01T00:05:44;99677.20;;;5.30
70533;BMP180;58088;51.186;17.130;2023-02-01T00:08:10;99676.00;;;5.30
70533;BMP180;58088;51.186;17.130;2023-02-01T00:10:37;99672.00;;;5.30
70533;BMP180;58088;51.186;17.130;2023-02-01T00:13:03;99673.40;;;5.30
70533;BMP180;58088;51.186;17.130;2023-02-01T00:15:29;99663.60;;;5.30
70533;BMP180;58088;51.186;17.130;2023-02-01T00:17:55;99666.00;;;5.30
70533;BMP180;58088;51.186;17.130;2023-02-01T00:20:21;99676.60;;;5.30
70533;BMP180;58088;51.186;17.130;2023-02-01T00:22:48;99676.40;;;5.20
70533;BMP180;58088;51.186;17.130;2023-02-01T00:25:14;99672.00;;;5.20
70533;BMP180;58088;51.186;17.130;2023-02-01T00:27:40;99668.20;;;5.20
70533;BMP180;58088;51.186;17.130;2023-02-01T00:30:07;99673.20;;;5.20
70533;BMP180;58088;51.186;17.130;2023-02-01T00:32:35;99684.40;;;5.20
70533;BMP180;58088;51.186;17.130;2023-02-01T00:35:01;99685.20;;;5.18
70533;BMP180;58088;51.186;17.130;2023-02-01T00:37:27;99680.80;;;5.14
70533;BMP180;58088;51.186;17.130;2023-02-01T00:39:53;99696.00;;;5.20
70533;BMP180;58088;51.186;17.130;2023-02-01T00:42:21;99701.20;;;5.20
70533;BMP180;58088;51.186;17.130;2023-02-01T00:44:48;99692.60;;;5.20
70533;BMP180;58088;51.186;17.130;2023-02-01T00:47:14;99691.00;;;5.22
70533;BMP180;58088;51.186;17.130;2023-02-01T00:49:40;99685.60;;;5.24
70533;BMP180;58088;51.186;17.130;2023-02-01T00:52:06;99688.80;;;5.30
70533;BMP180;58088;51.186;17.130;2023-02-01T00:54:33;99681.40;;;5.30
70533;BMP180;58088;51.186;17.130;2023-02-01T00:56:59;99682.40;;;5.32
70533;BMP180;58088;51.186;17.130;2023-02-01T00:59:25;99687.40;;;5.40
70533;BMP180;58088;51.186;17.130;2023-02-01T01:01:51;99687.80;;;5.40
70533;BMP180;58088;51.186;17.130;2023-02-01T01:04:18;99690.80;;;5.40
70533;BMP180;58088;51.186;17.130;2023-02-01T01:06:44;99688.20;;;5.46
70533;BMP180;58088;51.186;17.130;2023-02-01T01:09:10;99689.00;;;5.50
70533;BMP180;58088;51.186;17.130;2023-02-01T01:11:37;99683.20;;;5.50
70533;BMP180;58088;51.186;17.130;2023-02-01T01:14:07;99688.80;;;5.52
70533;BMP180;58088;51.186;17.130;2023-02-01T01:16:35;99682.80;;;5.60
70533;BMP180;58088;51.186;17.130;2023-02-01T01:19:02;99686.20;;;5.60
70533;BMP180;58088;51.186;17.130;2023-02-01T01:21:29;99681.00;;;5.60
70533;BMP180;58088;51.186;17.130;2023-02-01T01:23:56;99685.20;;;5.50
70533;BMP180;58088;51.186;17.130;2023-02-01T01:26:27;99676.60;;;5.52
70533;BMP180;58088;51.186;17.130;2023-02-01T01:28:56;99683.40;;;5.50
70533;BMP180;58088;51.186;17.130;2023-02-01T01:31:24;99690.80;;;5.42
70533;BMP180;58088;51.186;17.130;2023-02-01T01:33:53;99694.40;;;5.46
70533;BMP180;58088;51.186;17.130;2023-02-01T01:36:21;99690.20;;;5.44
70533;BMP180;58088;51.186;17.130;2023-02-01T01:38:47;99686.00;;;5.46
70533;BMP180;58088;51.186;17.130;2023-02-01T01:41:24;99680.20;;;5.50
70533;BMP180;58088;51.186;17.130;2023-02-01T01:44:04;99679.80;;;5.50
70533;BMP180;58088;51.186;17.130;2023-02-01T01:46:35;99683.00;;;5.50
70533;BMP180;58088;51.186;17.130;2023-02-01T01:49:09;99688.20;;;5.50
70533;BMP180;58088;51.186;17.130;2023-02-01T01:51:43;99694.00;;;5.50
70533;BMP180;58088;51.186;17.130;2023-02-01T01:57:04;99702.00;;;5.46
70533;BMP180;58088;51.186;17.130;2023-02-01T01:59:38;99706.80;;;5.50
70533;BMP180;58088;51.186;17.130;2023-02-01T02:02:21;99701.20;;;5.42
70533;BMP180;58088;51.186;17.130;2023-02-01T02:05:07;99706.80;;;5.46
70533;BMP180;58088;51.186;17.130;2023-02-01T02:07:39;99704.20;;;5.40
70533;BMP180;58088;51.186;17.130;2023-02-01T02:10:10;99709.60;;;5.42
70533;BMP180;58088;51.186;17.130;2023-02-01T02:12:43;99711.00;;;5.40
70533;BMP180;58088;51.186;17.130;2023-02-01T02:15:13;99708.80;;;5.40
70533;BMP180;58088;51.186;17.130;2023-02-01T02:23:50;99703.20;;;5.50
70533;BMP180;58088;51.186;17.130;2023-02-01T02:36:29;99698.20;;;5.60
70533;BMP180;58088;51.186;17.130;2023-02-01T02:44:49;99699.20;;;5.70
70533;BMP180;58088;51.186;17.130;2023-02-01T02:50:59;99701.60;;;5.70
70533;BMP180;58088;51.186;17.130;2023-02-01T02:54:02;99697.20;;;5.70
70533;BMP180;58088;51.186;17.130;2023-02-01T02:56:51;99696.80;;;5.72
70533;BMP180;58088;51.186;17.130;2023-02-01T02:59:39;99696.40;;;5.80
70533;BMP180;58088;51.186;17.130;2023-02-01T03:02:27;99704.40;;;5.80
70533;BMP180;58088;51.186;17.130;2023-02-01T03:05:12;99707.60;;;5.90
70533;BMP180;58088;51.186;17.130;2023-02-01T03:13:41;99703.20;;;6.00
70533;BMP180;58088;51.186;17.130;2023-02-01T03:16:46;99700.00;;;6.00
70533;BMP180;58088;51.186;17.130;2023-02-01T03:19:26;99706.60;;;6.10
70533;BMP180;58088;51.186;17.130;2023-02-01T03:21:59;99710.60;;;6.10
70533;BMP180;58088;51.186;17.130;2023-02-01T03:27:36;99711.60;;;6.20
70533;BMP180;58088;51.186;17.130;2023-02-01T03:32:37;99706.00;;;6.20
70533;BMP180;58088;51.186;17.130;2023-02-01T03:35:32;99710.20;;;6.20
70533;BMP180;58088;51.186;17.130;2023-02-01T03:38:24;99705.40;;;6.30
70533;BMP180;58088;51.186;17.130;2023-02-01T03:44:08;99706.80;;;6.30
70533;BMP180;58088;51.186;17.130;2023-02-01T03:46:42;99706.00;;;6.30
70533;BMP180;58088;51.186;17.130;2023-02-01T03:49:21;99694.00;;;6.30
70533;BMP180;58088;51.186;17.130;2023-02-01T03:51:51;99696.60;;;6.28
70533;BMP180;58088;51.186;17.130;2023-02-01T03:54:19;99691.40;;;6.30
70533;BMP180;58088;51.186;17.130;2023-02-01T03:56:48;99685.60;;;6.30
70533;BMP180;58088;51.186;17.130;2023-02-01T03:59:14;99688.00;;;6.26
70533;BMP180;58088;51.186;17.130;2023-02-01T04:01:41;99679.40;;;6.30
70533;BMP180;58088;51.186;17.130;2023-02-01T04:04:08;99678.40;;;6.30
70533;BMP180;58088;51.186;17.130;2023-02-01T04:06:35;99677.00;;;6.30
70533;BMP180;58088;51.186;17.130;2023-02-01T04:09:02;99674.20;;;6.20
70533;BMP180;58088;51.186;17.130;2023-02-01T04:11:28;99675.80;;;6.20
70533;BMP180;58088;51.186;17.130;2023-02-01T04:13:55;99672.40;;;6.20
70533;BMP180;58088;51.186;17.130;2023-02-01T04:16:21;99671.60;;;6.20
70533;BMP180;58088;51.186;17.130;2023-02-01T04:18:47;99665.60;;;6.10
70533;BMP180;58088;51.186;17.130;2023-02-01T04:21:13;99667.60;;;6.10
70533;BMP180;58088;51.186;17.130;2023-02-01T04:23:40;99666.20;;;6.10
70533;BMP180;58088;51.186;17.130;2023-02-01T04:26:06;99666.40;;;6.10
70533;BMP180;58088;51.186;17.130;2023-02-01T04:28:32;99667.00;;;6.10
70533;BMP180;58088;51.186;17.130;2023-02-01T04:30:59;99667.00;;;6.10
70533;BMP180;58088;51.186;17.130;2023-02-01T04:33:25;99660.20;;;6.08
70533;BMP180;58088;51.186;17.130;2023-02-01T04:35:51;99661.00;;;6.08
70533;BMP180;58088;51.186;17.130;2023-02-01T04:38:18;99661.20;;;6.00
70533;BMP180;58088;51.186;17.130;2023-02-01T04:40:47;99661.40;;;6.00
70533;BMP180;58088;51.186;17.130;2023-02-01T04:43:15;99661.60;;;6.00
70533;BMP180;58088;51.186;17.130;2023-02-01T04:45:41;99657.60;;;6.00
70533;BMP180;58088;51.186;17.130;2023-02-01T04:48:07;99661.60;;;6.10
70533;BMP180;58088;51.186;17.130;2023-02-01T04:50:35;99670.80;;;6.10
70533;BMP180;58088;51.186;17.130;2023-02-01T04:53:01;99665.80;;;6.10
70533;BMP180;58088;51.186;17.130;2023-02-01T04:55:28;99666.20;;;6.10
70533;BMP180;58088;51.186;17.130;2023-02-01T04:57:54;99658.60;;;6.20
70533;BMP180;58088;51.186;17.130;2023-02-01T05:00:21;99665.40;;;6.20
70533;BMP180;58088;51.186;17.130;2023-02-01T05:02:47;99660.80;;;6.20
70533;BMP180;58088;51.186;17.130;2023-02-01T05:05:13;99661.20;;;6.30
70533;BMP180;58088;51.186;17.130;2023-02-01T05:07:40;99653.60;;;6.30
70533;BMP180;58088;51.186;17.130;2023-02-01T05:10:07;99654.80;;;6.30
70533;BMP180;58088;51.186;17.130;2023-02-01T05:12:33;99659.40;;;6.40
70533;BMP180;58088;51.186;17.130;2023-02-01T05:15:19;99654.40;;;6.42
70533;BMP180;58088;51.186;17.130;2023-02-01T05:17:45;99657.20;;;6.40
70533;BMP180;58088;51.186;17.130;2023-02-01T05:20:11;99660.00;;;6.50
70533;BMP180;58088;51.186;17.130;2023-02-01T05:22:38;99656.40;;;6.50
70533;BMP180;58088;51.186;17.130;2023-02-01T05:25:04;99650.80;;;6.50
70533;BMP180;58088;51.186;17.130;2023-02-01T05:27:31;99652.20;;;6.50
70533;BMP180;58088;51.186;17.130;2023-02-01T05:29:57;99649.40;;;6.60
70533;BMP180;58088;51.186;17.130;2023-02-01T05:32:23;99652.20;;;6.60
70533;BMP180;58088;51.186;17.130;2023-02-01T05:34:50;99657.00;;;6.64
70533;BMP180;58088;51.186;17.130;2023-02-01T05:37:16;99647.80;;;6.68
70533;BMP180;58088;51.186;17.130;2023-02-01T05:39:43;99651.40;;;6.70
70533;BMP180;58088;51.186;17.130;2023-02-01T05:42:09;99653.00;;;6.70
70533;BMP180;58088;51.186;17.130;2023-02-01T05:44:36;99647.20;;;6.62
70533;BMP180;58088;51.186;17.130;2023-02-01T05:47:02;99641.40;;;6.60
70533;BMP180;58088;51.186;17.130;2023-02-01T05:49:28;99638.80;;;6.60
70533;BMP180;58088;51.186;17.130;2023-02-01T05:51:54;99638.80;;;6.60
70533;BMP180;58088;51.186;17.130;2023-02-01T05:54:20;99630.60;;;6.60
70533;BMP180;58088;51.186;17.130;2023-02-01T05:56:46;99632.80;;;6.60
70533;BMP180;58088;51.186;17.130;2023-02-01T05:59:13;99629.20;;;6.60
70533;BMP180;58088;51.186;17.130;2023-02-01T06:01:39;99632.80;;;6.60
70533;BMP180;58088;51.186;17.130;2023-02-01T06:04:05;99629.60;;;6.60
70533;BMP180;58088;51.186;17.130;2023-02-01T06:06:31;99628.20;;;6.62
70533;BMP180;58088;51.186;17.130;2023-02-01T06:08:58;99624.40;;;6.60
70533;BMP180;58088;51.186;17.130;2023-02-01T06:11:24;99625.40;;;6.60
70533;BMP180;58088;51.186;17.130;2023-02-01T06:13:50;99620.40;;;6.60
70533;BMP180;58088;51.186;17.130;2023-02-01T06:16:16;99627.40;;;6.60
70533;BMP180;58088;51.186;17.130;2023-02-01T06:18:43;99620.40;;;6.66
70533;BMP180;58088;51.186;17.130;2023-02-01T06:21:09;99620.00;;;6.70
70533;BMP180;58088;51.186;17.130;2023-02-01T06:23:35;99614.80;;;6.70
70533;BMP180;58088;51.186;17.130;2023-02-01T06:26:05;99614.40;;;6.78
70533;BMP180;58088;51.186;17.130;2023-02-01T06:28:34;99618.40;;;6.80
70533;BMP180;58088;51.186;17.130;2023-02-01T06:31:06;99620.40;;;6.80
70533;BMP180;58088;51.186;17.130;2023-02-01T06:33:34;99623.60;;;6.80
70533;BMP180;58088;51.186;17.130;2023-02-01T06:36:04;99624.20;;;6.80
70533;BMP180;58088;51.186;17.130;2023-02-01T06:38:31;99626.40;;;6.80
70533;BMP180;58088;51.186;17.130;2023-02-01T06:40:58;99631.40;;;6.90
70533;BMP180;58088;51.186;17.130;2023-02-01T06:43:26;99625.20;;;6.90
70533;BMP180;58088;51.186;17.130;2023-02-01T06:46:03;99630.20;;;6.96
70533;BMP180;58088;51.186;17.130;2023-02-01T06:48:30;99634.40;;;7.00
70533;BMP180;58088;51.186;17.130;2023-02-01T06:50:56;99640.20;;;7.00
70533;BMP180;58088;51.186;17.130;2023-02-01T06:53:23;99649.80;;;7.00
70533;BMP180;58088;51.186;17.130;2023-02-01T06:56:08;99645.80;;;7.04
70533;BMP180;58088;51.186;17.130;2023-02-01T06:58:35;99650.00;;;7.00
70533;BMP180;58088;51.186;17.130;2023-02-01T07:01:07;99653.40;;;7.10
70533;BMP180;58088;51.186;17.130;2023-02-01T07:03:34;99641.00;;;7.10
70533;BMP180;58088;51.186;17.130;2023-02-01T07:06:00;99643.40;;;7.10
70533;BMP180;58088;51.186;17.130;2023-02-01T07:08:28;99649.40;;;7.10
70533;BMP180;58088;51.186;17.130;2023-02-01T07:10:54;99644.20;;;7.18
70533;BMP180;58088;51.186;17.130;2023-02-01T07:13:20;99643.00;;;7.20
70533;BMP180;58088;51.186;17.130;2023-02-01T07:15:47;99649.80;;;7.20
70533;BMP180;58088;51.186;17.130;2023-02-01T07:18:16;99644.20;;;7.20
70533;BMP180;58088;51.186;17.130;2023-02-01T07:20:42;99647.00;;;7.20
70533;BMP180;58088;51.186;17.130;2023-02-01T07:23:11;99652.20;;;7.20
70533;BMP180;58088;51.186;17.130;2023-02-01T07:25:37;99650.20;;;7.22
70533;BMP180;58088;51.186;17.130;2023-02-01T07:28:04;99643.80;;;7.20
70533;BMP180;58088;51.186;17.130;2023-02-01T07:30:30;99642.60;;;7.20
70533;BMP180;58088;51.186;17.130;2023-02-01T07:32:56;99637.20;;;7.20
70533;BMP180;58088;51.186;17.130;2023-02-01T07:35:28;99646.60;;;7.20
70533;BMP180;58088;51.186;17.130;2023-02-01T07:37:57;99648.20;;;7.22
70533;BMP180;58088;51.186;17.130;2023-02-01T07:40:24;99641.00;;;7.30
70533;BMP180;58088;51.186;17.130;2023-02-01T07:42:55;99647.20;;;7.30
70533;BMP180;58088;51.186;17.130;2023-02-01T07:45:22;99643.20;;;7.30
70533;BMP180;58088;51.186;17.130;2023-02-01T07:47:49;99630.80;;;7.30
70533;BMP180;58088;51.186;17.130;2023-02-01T07:50:17;99631.00;;;7.30
70533;BMP180;58088;51.186;17.130;2023-02-01T07:52:43;99636.40;;;7.30
70533;BMP180;58088;51.186;17.130;2023-02-01T07:55:10;99635.20;;;7.30
70533;BMP180;58088;51.186;17.130;2023-02-01T07:57:36;99624.60;;;7.30
70533;BMP180;58088;51.186;17.130;2023-02-01T08:00:04;99626.00;;;7.40
70533;BMP180;58088;51.186;17.130;2023-02-01T08:02:49;99627.40;;;7.38
70533;BMP180;58088;51.186;17.130;2023-02-01T08:05:16;99637.60;;;7.34
70533;BMP180;58088;51.186;17.130;2023-02-01T08:07:43;99631.00;;;7.40
70533;BMP180;58088;51.186;17.130;2023-02-01T08:10:10;99634.00;;;7.40
70533;BMP180;58088;51.186;17.130;2023-02-01T08:12:37;99630.40;;;7.40
70533;BMP180;58088;51.186;17.130;2023-02-01T08:15:05;99625.60;;;7.30
70533;BMP180;58088;51.186;17.130;2023-02-01T08:17:32;99626.40;;;7.40
70533;BMP180;58088;51.186;17.130;2023-02-01T08:19:59;99625.40;;;7.40
70533;BMP180;58088;51.186;17.130;2023-02-01T08:22:25;99632.60;;;7.40
70533;BMP180;58088;51.186;17.130;2023-02-01T08:24:52;99622.60;;;7.50
70533;BMP180;58088;51.186;17.130;2023-02-01T08:27:27;99614.80;;;7.50
70533;BMP180;58088;51.186;17.130;2023-02-01T08:29:54;99613.00;;;7.50
70533;BMP180;58088;51.186;17.130;2023-02-01T08:32:20;99618.80;;;7.50
70533;BMP180;58088;51.186;17.130;2023-02-01T08:34:46;99615.00;;;7.50
70533;BMP180;58088;51.186;17.130;2023-02-01T08:37:12;99600.60;;;7.50
70533;BMP180;58088;51.186;17.130;2023-02-01T08:39:39;99613.00;;;7.52
70533;BMP180;58088;51.186;17.130;2023-02-01T08:42:08;99603.20;;;7.60
70533;BMP180;58088;51.186;17.130;2023-02-01T08:44:53;99604.00;;;7.60
70533;BMP180;58088;51.186;17.130;2023-02-01T08:47:20;99606.60;;;7.60
70533;BMP180;58088;51.186;17.130;2023-02-01T08:49:46;99606.40;;;7.60
70533;BMP180;58088;51.186;17.130;2023-02-01T08:52:14;99617.20;;;7.60
70533;BMP180;58088;51.186;17.130;2023-02-01T08:54:40;99608.20;;;7.60
70533;BMP180;58088;51.186;17.130;2023-02-01T08:57:08;99608.40;;;7.60
70533;BMP180;58088;51.186;17.130;2023-02-01T08:59:35;99620.40;;;7.60
70533;BMP180;58088;51.186;17.130;2023-02-01T09:02:02;99605.20;;;7.60
70533;BMP180;58088;51.186;17.130;2023-02-01T09:04:28;99610.80;;;7.60
70533;BMP180;58088;51.186;17.130;2023-02-01T09:06:55;99608.80;;;7.60
70533;BMP180;58088;51.186;17.130;2023-02-01T09:09:23;99601.00;;;7.60
70533;BMP180;58088;51.186;17.130;2023-02-01T09:11:50;99609.60;;;7.60
70533;BMP180;58088;51.186;17.130;2023-02-01T09:14:17;99619.40;;;7.60
70533;BMP180;58088;51.186;17.130;2023-02-01T09:16:43;99618.40;;;7.60
70533;BMP180;58088;51.186;17.130;2023-02-01T09:19:10;99614.20;;;7.52
70533;BMP180;58088;51.186;17.130;2023-02-01T09:21:36;99624.20;;;7.52
70533;BMP180;58088;51.186;17.130;2023-02-01T09:24:03;99617.20;;;7.50
70533;BMP180;58088;51.186;17.130;2023-02-01T09:26:30;99615.20;;;7.50
70533;BMP180;58088;51.186;17.130;2023-02-01T09:28:56;99606.40;;;7.50
70533;BMP180;58088;51.186;17.130;2023-02-01T09:31:22;99604.00;;;7.50
70533;BMP180;58088;51.186;17.130;2023-02-01T09:33:49;99612.80;;;7.50
70533;BMP180;58088;51.186;17.130;2023-02-01T09:36:15;99597.60;;;7.60
70533;BMP180;58088;51.186;17.130;2023-02-01T09:38:41;99593.00;;;7.60
70533;BMP180;58088;51.186;17.130;2023-02-01T09:46:46;99589.00;;;7.70
70533;BMP180;58088;51.186;17.130;2023-02-01T09:49:19;99589.20;;;7.80
70533;BMP180;58088;51.186;17.130;2023-02-01T09:51:51;99587.60;;;7.80
70533;BMP180;58088;51.186;17.130;2023-02-01T09:54:24;99583.00;;;7.84
70533;BMP180;58088;51.186;17.130;2023-02-01T09:57:03;99581.20;;;7.88
70533;BMP180;58088;51.186;17.130;2023-02-01T10:02:39;99581.60;;;7.90
70533;BMP180;58088;51.186;17.130;2023-02-01T10:05:13;99577.00;;;7.90
70533;BMP180;58088;51.186;17.130;2023-02-01T10:08:03;99575.20;;;7.90
70533;BMP180;58088;51.186;17.130;2023-02-01T10:10:44;99572.00;;;7.90
70533;BMP180;58088;51.186;17.130;2023-02-01T10:13:37;99573.60;;;7.90
70533;BMP180;58088;51.186;17.130;2023-02-01T10:16:51;99584.20;;;8.00
70533;BMP180;58088;51.186;17.130;2023-02-01T10:22:43;99576.20;;;8.10
70533;BMP180;58088;51.186;17.130;2023-02-01T10:25:24;99573.80;;;8.10
70533;BMP180;58088;51.186;17.130;2023-02-01T10:27:53;99572.00;;;8.10
70533;BMP180;58088;51.186;17.130;2023-02-01T10:30:24;99565.80;;;8.20
70533;BMP180;58088;51.186;17.130;2023-02-01T10:33:24;99565.00;;;8.10
70533;BMP180;58088;51.186;17.130;2023-02-01T10:39:13;99542.20;;;8.00
70533;BMP180;58088;51.186;17.130;2023-02-01T10:41:41;99545.80;;;7.92
70533;BMP180;58088;51.186;17.130;2023-02-01T10:44:16;99541.20;;;7.90
70533;BMP180;58088;51.186;17.130;2023-02-01T10:46:43;99542.00;;;7.86
70533;BMP180;58088;51.186;17.130;2023-02-01T10:49:18;99543.80;;;7.88
70533;BMP180;58088;51.186;17.130;2023-02-01T10:54:40;99528.60;;;7.82
70533;BMP180;58088;51.186;17.130;2023-02-01T10:57:26;99533.60;;;7.80
70533;BMP180;58088;51.186;17.130;2023-02-01T10:59:55;99529.80;;;7.80
70533;BMP180;58088;51.186;17.130;2023-02-01T11:02:26;99527.20;;;7.90
70533;BMP180;58088;51.186;17.130;2023-02-01T11:05:07;99529.40;;;7.82
70533;BMP180;58088;51.186;17.130;2023-02-01T11:07:47;99527.60;;;7.88
70533;BMP180;58088;51.186;17.130;2023-02-01T11:10:41;99525.40;;;7.80
70533;BMP180;58088;51.186;17.130;2023-02-01T11:13:15;99519.00;;;7.80
70533;BMP180;58088;51.186;17.130;2023-02-01T11:15:46;99513.40;;;7.70
70533;BMP180;58088;51.186;17.130;2023-02-01T11:18:28;99507.60;;;7.66
70533;BMP180;58088;51.186;17.130;2023-02-01T11:20:55;99515.80;;;7.62
70533;BMP180;58088;51.186;17.130;2023-02-01T11:23:28;99510.60;;;7.68
70533;BMP180;58088;51.186;17.130;2023-02-01T11:25:59;99503.80;;;7.64
70533;BMP180;58088;51.186;17.130;2023-02-01T11:28:32;99500.60;;;7.60
70533;BMP180;58088;51.186;17.130;2023-02-01T11:31:05;99494.20;;;7.60
70533;BMP180;58088;51.186;17.130;2023-02-01T11:33:37;99495.60;;;7.60
70533;BMP180;58088;51.186;17.130;2023-02-01T11:36:16;99488.00;;;7.60
70533;BMP180;58088;51.186;17.130;2023-02-01T11:39:18;99486.20;;;7.50
70533;BMP180;58088;51.186;17.130;2023-02-01T11:42:20;99480.40;;;7.50
70533;BMP180;58088;51.186;17.130;2023-02-01T11:44:47;99464.00;;;7.48
70533;BMP180;58088;51.186;17.130;2023-02-01T11:47:39;99473.20;;;7.50
70533;BMP180;58088;51.186;17.130;2023-02-01T11:50:17;99465.80;;;7.50
70533;BMP180;58088;51.186;17.130;2023-02-01T12:10:29;99457.00;;;7.40
70533;BMP180;58088;51.186;17.130;2023-02-01T12:21:37;99451.60;;;7.30
70533;BMP180;58088;51.186;17.130;2023-02-01T12:24:25;99448.60;;;7.30
70533;BMP180;58088;51.186;17.130;2023-02-01T12:27:03;99439.60;;;7.30
70533;BMP180;58088;51.186;17.130;2023-02-01T12:38:53;99438.80;;;7.48
70533;BMP180;58088;51.186;17.130;2023-02-01T12:41:54;99448.60;;;7.50
70533;BMP180;58088;51.186;17.130;2023-02-01T12:44:35;99442.20;;;7.50
70533;BMP180;58088;51.186;17.130;2023-02-01T12:47:36;99439.00;;;7.40
70533;BMP180;58088;51.186;17.130;2023-02-01T12:50:23;99444.80;;;7.40
70533;BMP180;58088;51.186;17.130;2023-02-01T12:52:56;99444.00;;;7.40
70533;BMP180;58088;51.186;17.130;2023-02-01T12:55:35;99454.60;;;7.32
70533;BMP180;58088;51.186;17.130;2023-02-01T12:58:24;99462.60;;;7.30
70533;BMP180;58088;51.186;17.130;2023-02-01T13:01:25;99462.20;;;7.30
70533;BMP180;58088;51.186;17.130;2023-02-01T13:04:18;99474.60;;;7.30
70533;BMP180;58088;51.186;17.130;2023-02-01T13:09:51;99488.80;;;7.24
70533;BMP180;58088;51.186;17.130;2023-02-01T13:12:36;99485.60;;;7.20
70533;BMP180;58088;51.186;17.130;2023-02-01T13:15:24;99484.00;;;7.20
70533;BMP180;58088;51.186;17.130;2023-02-01T13:17:55;99492.20;;;7.20
70533;BMP180;58088;51.186;17.130;2023-02-01T13:20:42;99494.60;;;7.28
70533;BMP180;58088;51.186;17.130;2023-02-01T13:23:26;99497.00;;;7.30
70533;BMP180;58088;51.186;17.130;2023-02-01T13:25:54;99495.00;;;7.30
70533;BMP180;58088;51.186;17.130;2023-02-01T13:37:48;99499.60;;;7.30
70533;BMP180;58088;51.186;17.130;2023-02-01T13:40:44;99504.80;;;7.30
70533;BMP180;58088;51.186;17.130;2023-02-01T13:43:18;99503.00;;;7.30
70533;BMP180;58088;51.186;17.130;2023-02-01T13:45:50;99503.40;;;7.40
70533;BMP180;58088;51.186;17.130;2023-02-01T13:48:29;99505.20;;;7.40
70533;BMP180;58088;51.186;17.130;2023-02-01T13:50:58;99504.40;;;7.40
70533;BMP180;58088;51.186;17.130;2023-02-01T13:56:11;99505.60;;;7.40
70533;BMP180;58088;51.186;17.130;2023-02-01T13:58:42;99513.60;;;7.40
70533;BMP180;58088;51.186;17.130;2023-02-01T14:04:00;99504.60;;;7.40
70533;BMP180;58088;51.186;17.130;2023-02-01T14:12:42;99504.00;;;7.40
70533;BMP180;58088;51.186;17.130;2023-02-01T14:15:36;99495.60;;;7.54
70533;BMP180;58088;51.186;17.130;2023-02-01T14:21:33;99494.40;;;7.60
70533;BMP180;58088;51.186;17.130;2023-02-01T14:24:16;99498.00;;;7.70
70533;BMP180;58088;51.186;17.130;2023-02-01T14:26:49;99499.80;;;7.60
70533;BMP180;58088;51.186;17.130;2023-02-01T14:29:38;99494.40;;;7.64
70533;BMP180;58088;51.186;17.130;2023-02-01T14:32:24;99497.60;;;7.60
70533;BMP180;58088;51.186;17.130;2023-02-01T14:34:59;99504.40;;;7.50
70533;BMP180;58088;51.186;17.130;2023-02-01T14:37:36;99514.80;;;7.40
70533;BMP180;58088;51.186;17.130;2023-02-01T14:40:22;99501.00;;;7.30
70533;BMP180;58088;51.186;17.130;2023-02-01T14:42:53;99507.20;;;7.20
70533;BMP180;58088;51.186;17.130;2023-02-01T14:48:41;99510.60;;;7.20
70533;BMP180;58088;51.186;17.130;2023-02-01T14:50:44;99511.80;;;7.30
70533;BMP180;58088;51.186;17.130;2023-02-01T14:58:29;99514.80;;;7.30
70533;BMP180;58088;51.186;17.130;2023-02-01T15:01:04;99521.20;;;7.20
70533;BMP180;58088;51.186;17.130;2023-02-01T15:03:50;99523.60;;;7.20
70533;BMP180;58088;51.186;17.130;2023-02-01T15:06:51;99519.40;;;7.12
70533;BMP180;58088;51.186;17.130;2023-02-01T15:09:43;99521.60;;;7.20
70533;BMP180;58088;51.186;17.130;2023-02-01T15:14:46;99508.80;;;7.10
70533;BMP180;58088;51.186;17.130;2023-02-01T15:17:21;99512.60;;;7.10
70533;BMP180;58088;51.186;17.130;2023-02-01T15:20:01;99507.80;;;7.20
70533;BMP180;58088;51.186;17.130;2023-02-01T15:22:31;99509.60;;;7.20
70533;BMP180;58088;51.186;17.130;2023-02-01T15:24:59;99517.80;;;7.16
70533;BMP180;58088;51.186;17.130;2023-02-01T15:27:28;99518.20;;;7.10
70533;BMP180;58088;51.186;17.130;2023-02-01T15:29:54;99519.60;;;7.10
70533;BMP180;58088;51.186;17.130;2023-02-01T15:32:34;99520.80;;;7.10
70533;BMP180;58088;51.186;17.130;2023-02-01T15:35:01;99521.00;;;7.10
70533;BMP180;58088;51.186;17.130;2023-02-01T15:37:29;99522.20;;;7.10
70533;BMP180;58088;51.186;17.130;2023-02-01T15:42:48;99524.00;;;7.10
70533;BMP180;58088;51.186;17.130;2023-02-01T15:45:22;99525.00;;;7.10
70533;BMP180;58088;51.186;17.130;2023-02-01T15:47:52;99518.20;;;7.10
70533;BMP180;58088;51.186;17.130;2023-02-01T15:50:20;99518.00;;;7.10
70533;BMP180;58088;51.186;17.130;2023-02-01T15:52:49;99532.00;;;7.10
70533;BMP180;58088;51.186;17.130;2023-02-01T15:55:40;99523.80;;;7.10
70533;BMP180;58088;51.186;17.130;2023-02-01T15:58:17;99519.80;;;7.12
70533;BMP180;58088;51.186;17.130;2023-02-01T16:03:43;99522.80;;;7.10
70533;BMP180;58088;51.186;17.130;2023-02-01T16:06:28;99516.80;;;7.10
70533;BMP180;58088;51.186;17.130;2023-02-01T16:09:11;99519.40;;;7.10
70533;BMP180;58088;51.186;17.130;2023-02-01T16:11:55;99517.00;;;7.10
70533;BMP180;58088;51.186;17.130;2023-02-01T16:14:22;99510.80;;;7.10
70533;BMP180;58088;51.186;17.130;2023-02-01T16:16:50;99511.40;;;7.10
70533;BMP180;58088;51.186;17.130;2023-02-01T16:19:16;99511.80;;;7.04
70533;BMP180;58088;51.186;17.130;2023-02-01T16:21:43;99509.60;;;7.00
70533;BMP180;58088;51.186;17.130;2023-02-01T16:24:09;99516.40;;;7.00
70533;BMP180;58088;51.186;17.130;2023-02-01T16:26:36;99515.00;;;7.00
70533;BMP180;58088;51.186;17.130;2023-02-01T16:29:04;99512.60;;;6.98
70533;BMP180;58088;51.186;17.130;2023-02-01T16:31:39;99518.80;;;6.92
70533;BMP180;58088;51.186;17.130;2023-02-01T16:34:15;99516.20;;;6.90
70533;BMP180;58088;51.186;17.130;2023-02-01T16:36:47;99522.60;;;6.90
70533;BMP180;58088;51.186;17.130;2023-02-01T16:39:20;99524.60;;;6.90
70533;BMP180;58088;51.186;17.130;2023-02-01T16:41:47;99517.80;;;6.90
70533;BMP180;58088;51.186;17.130;2023-02-01T16:44:14;99512.40;;;6.90
70533;BMP180;58088;51.186;17.130;2023-02-01T16:46:44;99523.80;;;6.90
70533;BMP180;58088;51.186;17.130;2023-02-01T16:49:31;99513.60;;;6.88
70533;BMP180;58088;51.186;17.130;2023-02-01T16:51:59;99504.80;;;6.90
70533;BMP180;58088;51.186;17.130;2023-02-01T16:54:27;99508.80;;;6.88
70533;BMP180;58088;51.186;17.130;2023-02-01T16:56:54;99504.00;;;6.90